Liberty, Minnesota
Current Conditions -  °F | °C
As of 6:53 AM on Monday 20 Oct 2014 (Local Time) from KBJI Reporting Station
Clear Clear  
Wind Chill: 29°   Ceiling: Unl
Heat Index: 35°   Visibility: 10mi
Dew Point: 34°   Wind: 7mph
Humidity: 98%   Direction: 310°NW
Pressure: 29.99"   Gusts: NA
Location:  47.7369°N, 94.9947°W
Report Text: KBJI 201153Z AUTO 31006KT 10SM CLR 01/01 A2999 RMK AO2 T00140011
Loading
Personal Weather Stations






























Interactive Weather Map
Tropical Storm Tracking
New forecast layout! Learn more

10-Day Weather Forecast

Advertisements
Track Severe Weather on mobile